sensor_id;sensor_type;location;lat;lon;timestamp;pressure;altitude;pressure_sealevel;temperature;humidity
46768;BME280;69007;48.978;18.066;2023-09-12T00:00:53;97425.78;;;19.56;100.00
46768;BME280;69007;48.978;18.066;2023-09-12T00:03:20;97416.09;;;19.41;100.00
46768;BME280;69007;48.978;18.066;2023-09-12T00:05:59;97425.47;;;19.40;100.00
46768;BME280;69007;48.978;18.066;2023-09-12T00:08:25;97420.78;;;19.31;100.00
46768;BME280;69007;48.978;18.066;2023-09-12T00:11:03;97400.56;;;19.10;100.00
46768;BME280;69007;48.978;18.066;2023-09-12T00:13:30;97419.69;;;19.24;100.00
46768;BME280;69007;48.978;18.066;2023-09-12T00:15:56;97415.81;;;19.16;100.00
46768;BME280;69007;48.978;18.066;2023-09-12T00:18:21;97395.22;;;19.05;100.00
46768;BME280;69007;48.978;18.066;2023-09-12T00:20:46;97421.94;;;19.22;100.00
46768;BME280;69007;48.978;18.066;2023-09-12T00:23:12;97385.47;;;18.99;100.00
46768;BME280;69007;48.978;18.066;2023-09-12T00:25:37;97415.81;;;19.16;100.00
46768;BME280;69007;48.978;18.066;2023-09-12T00:28:03;97425.22;;;19.15;100.00
46768;BME280;69007;48.978;18.066;2023-09-12T00:30:28;97391.16;;;18.93;100.00
46768;BME280;69007;48.978;18.066;2023-09-12T00:32:53;97387.94;;;18.91;100.00
46768;BME280;69007;48.978;18.066;2023-09-12T00:35:19;97406.91;;;19.02;100.00
46768;BME280;69007;48.978;18.066;2023-09-12T00:37:44;97391.66;;;18.95;100.00
46768;BME280;69007;48.978;18.066;2023-09-12T00:40:10;97400.88;;;19.08;100.00
46768;BME280;69007;48.978;18.066;2023-09-12T00:42:35;97424.25;;;19.11;100.00
46768;BME280;69007;48.978;18.066;2023-09-12T00:45:00;97421.50;;;19.11;100.00
46768;BME280;69007;48.978;18.066;2023-09-12T00:47:27;97409.63;;;19.10;100.00
46768;BME280;69007;48.978;18.066;2023-09-12T00:49:55;97404.78;;;19.16;100.00
46768;BME280;69007;48.978;18.066;2023-09-12T00:52:21;97403.13;;;19.15;100.00
46768;BME280;69007;48.978;18.066;2023-09-12T00:54:47;97399.09;;;19.04;100.00
46768;BME280;69007;48.978;18.066;2023-09-12T00:57:13;97405.28;;;19.01;100.00
46768;BME280;69007;48.978;18.066;2023-09-12T00:59:39;97390.69;;;19.00;100.00
46768;BME280;69007;48.978;18.066;2023-09-12T01:02:04;97383.38;;;18.95;100.00
46768;BME280;69007;48.978;18.066;2023-09-12T01:04:31;97407.53;;;18.99;100.00
46768;BME280;69007;48.978;18.066;2023-09-12T01:06:58;97385.81;;;18.88;100.00
46768;BME280;69007;48.978;18.066;2023-09-12T01:09:24;97391.50;;;19.01;100.00
46768;BME280;69007;48.978;18.066;2023-09-12T01:11:49;97380.16;;;18.85;100.00
46768;BME280;69007;48.978;18.066;2023-09-12T01:14:14;97392.81;;;18.94;100.00
46768;BME280;69007;48.978;18.066;2023-09-12T01:16:40;97399.28;;;18.99;100.00
46768;BME280;69007;48.978;18.066;2023-09-12T01:19:06;97400.09;;;18.99;100.00
46768;BME280;69007;48.978;18.066;2023-09-12T01:27:30;97404.47;;;18.91;100.00
46768;BME280;69007;48.978;18.066;2023-09-12T01:30:04;97377.38;;;18.76;100.00
46768;BME280;69007;48.978;18.066;2023-09-12T01:32:31;97396.34;;;18.95;100.00
46768;BME280;69007;48.978;18.066;2023-09-12T01:34:57;97394.91;;;18.98;100.00
46768;BME280;69007;48.978;18.066;2023-09-12T01:37:22;97375.44;;;18.68;100.00
46768;BME280;69007;48.978;18.066;2023-09-12T01:39:47;97383.53;;;18.82;100.00
46768;BME280;69007;48.978;18.066;2023-09-12T01:42:18;97402.19;;;18.76;100.00
46768;BME280;69007;48.978;18.066;2023-09-12T01:44:45;97365.72;;;18.53;100.00
46768;BME280;69007;48.978;18.066;2023-09-12T01:47:12;97398.28;;;18.77;100.00
46768;BME280;69007;48.978;18.066;2023-09-12T01:49:42;97404.28;;;18.79;100.00
46768;BME280;69007;48.978;18.066;2023-09-12T01:52:09;97398.13;;;18.82;100.00
46768;BME280;69007;48.978;18.066;2023-09-12T01:54:36;97382.56;;;18.69;100.00
46768;BME280;69007;48.978;18.066;2023-09-12T01:57:02;97390.66;;;18.74;100.00
46768;BME280;69007;48.978;18.066;2023-09-12T01:59:28;97379.00;;;18.59;100.00
46768;BME280;69007;48.978;18.066;2023-09-12T02:01:54;97396.66;;;18.67;100.00
46768;BME280;69007;48.978;18.066;2023-09-12T02:04:20;97390.03;;;18.59;100.00
46768;BME280;69007;48.978;18.066;2023-09-12T02:06:45;97402.00;;;18.64;100.00
46768;BME280;69007;48.978;18.066;2023-09-12T02:09:10;97401.22;;;18.63;100.00
46768;BME280;69007;48.978;18.066;2023-09-12T02:11:36;97376.06;;;18.47;100.00
46768;BME280;69007;48.978;18.066;2023-09-12T02:14:01;97358.25;;;18.36;100.00
46768;BME280;69007;48.978;18.066;2023-09-12T02:16:27;97397.31;;;18.55;100.00
46768;BME280;69007;48.978;18.066;2023-09-12T02:18:53;97383.84;;;18.45;100.00
46768;BME280;69007;48.978;18.066;2023-09-12T02:21:18;97408.66;;;18.45;100.00
46768;BME280;69007;48.978;18.066;2023-09-12T02:23:43;97405.22;;;18.39;100.00
46768;BME280;69007;48.978;18.066;2023-09-12T02:26:09;97395.34;;;18.30;100.00
46768;BME280;69007;48.978;18.066;2023-09-12T02:28:34;97384.34;;;18.30;100.00
46768;BME280;69007;48.978;18.066;2023-09-12T02:30:59;97381.72;;;18.24;100.00
46768;BME280;69007;48.978;18.066;2023-09-12T02:33:25;97396.97;;;18.39;100.00
46768;BME280;69007;48.978;18.066;2023-09-12T02:35:50;97375.56;;;18.28;100.00
46768;BME280;69007;48.978;18.066;2023-09-12T02:38:17;97399.41;;;18.41;100.00
46768;BME280;69007;48.978;18.066;2023-09-12T02:40:42;97383.19;;;18.31;100.00
46768;BME280;69007;48.978;18.066;2023-09-12T02:43:08;97400.88;;;18.38;100.00
46768;BME280;69007;48.978;18.066;2023-09-12T02:45:33;97386.09;;;18.26;100.00
46768;BME280;69007;48.978;18.066;2023-09-12T02:47:58;97409.63;;;18.40;100.00
46768;BME280;69007;48.978;18.066;2023-09-12T02:50:24;97387.56;;;18.32;100.00
46768;BME280;69007;48.978;18.066;2023-09-12T02:52:49;97408.81;;;18.40;100.00
46768;BME280;69007;48.978;18.066;2023-09-12T02:55:14;97412.38;;;18.40;100.00
46768;BME280;69007;48.978;18.066;2023-09-12T02:57:40;97405.69;;;18.33;100.00
46768;BME280;69007;48.978;18.066;2023-09-12T03:00:05;97404.91;;;18.23;100.00
46768;BME280;69007;48.978;18.066;2023-09-12T03:02:33;97403.09;;;18.19;100.00
46768;BME280;69007;48.978;18.066;2023-09-12T03:04:59;97384.44;;;18.07;100.00
46768;BME280;69007;48.978;18.066;2023-09-12T03:07:24;97414.44;;;18.26;100.00
46768;BME280;69007;48.978;18.066;2023-09-12T03:09:49;97396.16;;;18.21;100.00
46768;BME280;69007;48.978;18.066;2023-09-12T03:12:15;97374.06;;;17.95;100.00
46768;BME280;69007;48.978;18.066;2023-09-12T03:14:40;97407.81;;;18.18;100.00
46768;BME280;69007;48.978;18.066;2023-09-12T03:17:06;97395.78;;;18.14;100.00
46768;BME280;69007;48.978;18.066;2023-09-12T03:19:31;97378.78;;;18.03;100.00
46768;BME280;69007;48.978;18.066;2023-09-12T03:21:57;97410.88;;;18.17;100.00
46768;BME280;69007;48.978;18.066;2023-09-12T03:24:23;97392.25;;;18.14;100.00
46768;BME280;69007;48.978;18.066;2023-09-12T03:26:50;97414.63;;;18.30;100.00
46768;BME280;69007;48.978;18.066;2023-09-12T03:29:16;97401.94;;;18.11;100.00
46768;BME280;69007;48.978;18.066;2023-09-12T03:31:41;97387.00;;;17.95;100.00
46768;BME280;69007;48.978;18.066;2023-09-12T03:34:06;97416.69;;;18.15;100.00
46768;BME280;69007;48.978;18.066;2023-09-12T03:36:32;97390.44;;;18.00;100.00
46768;BME280;69007;48.978;18.066;2023-09-12T03:38:57;97423.34;;;18.14;100.00
46768;BME280;69007;48.978;18.066;2023-09-12T03:41:22;97424.59;;;18.08;100.00
46768;BME280;69007;48.978;18.066;2023-09-12T03:43:53;97418.59;;;17.97;100.00
46768;BME280;69007;48.978;18.066;2023-09-12T03:46:19;97418.44;;;17.94;100.00
46768;BME280;69007;48.978;18.066;2023-09-12T03:48:44;97394.56;;;17.80;100.00
46768;BME280;69007;48.978;18.066;2023-09-12T03:51:11;97392.13;;;17.79;100.00
46768;BME280;69007;48.978;18.066;2023-09-12T03:53:36;97411.59;;;17.91;100.00
46768;BME280;69007;48.978;18.066;2023-09-12T03:56:01;97424.59;;;17.99;100.00
46768;BME280;69007;48.978;18.066;2023-09-12T03:58:27;97419.88;;;18.00;100.00
46768;BME280;69007;48.978;18.066;2023-09-12T04:00:52;97431.41;;;18.02;100.00
46768;BME280;69007;48.978;18.066;2023-09-12T04:03:18;97422.28;;;17.93;100.00
46768;BME280;69007;48.978;18.066;2023-09-12T04:05:43;97423.84;;;17.85;100.00
46768;BME280;69007;48.978;18.066;2023-09-12T04:08:08;97418.25;;;17.90;100.00
46768;BME280;69007;48.978;18.066;2023-09-12T04:10:34;97431.88;;;17.95;100.00
46768;BME280;69007;48.978;18.066;2023-09-12T04:12:59;97405.88;;;17.79;100.00
46768;BME280;69007;48.978;18.066;2023-09-12T04:15:24;97400.38;;;17.79;100.00
46768;BME280;69007;48.978;18.066;2023-09-12T04:17:50;97426.38;;;17.95;100.00
46768;BME280;69007;48.978;18.066;2023-09-12T04:20:15;97431.88;;;17.95;100.00
46768;BME280;69007;48.978;18.066;2023-09-12T04:22:44;97404.09;;;17.83;100.00
46768;BME280;69007;48.978;18.066;2023-09-12T04:25:09;97425.72;;;17.98;100.00
46768;BME280;69007;48.978;18.066;2023-09-12T04:27:35;97407.00;;;17.86;100.00
46768;BME280;69007;48.978;18.066;2023-09-12T04:30:00;97433.53;;;18.05;100.00
46768;BME280;69007;48.978;18.066;2023-09-12T04:32:26;97438.72;;;18.15;100.00
46768;BME280;69007;48.978;18.066;2023-09-12T04:34:51;97429.03;;;18.27;100.00
46768;BME280;69007;48.978;18.066;2023-09-12T04:37:17;97419.47;;;18.33;100.00
46768;BME280;69007;48.978;18.066;2023-09-12T04:39:43;97426.66;;;18.51;100.00
46768;BME280;69007;48.978;18.066;2023-09-12T04:42:08;97412.41;;;18.67;100.00
46768;BME280;69007;48.978;18.066;2023-09-12T04:44:35;97435.13;;;19.16;100.00
46768;BME280;69007;48.978;18.066;2023-09-12T04:47:01;97431.94;;;19.52;100.00
46768;BME280;69007;48.978;18.066;2023-09-12T04:49:27;97451.19;;;19.87;100.00
46768;BME280;69007;48.978;18.066;2023-09-12T04:51:53;97435.94;;;20.20;100.00
46768;BME280;69007;48.978;18.066;2023-09-12T04:54:18;97413.13;;;20.53;100.00
46768;BME280;69007;48.978;18.066;2023-09-12T04:56:45;97414.78;;;20.96;100.00
46768;BME280;69007;48.978;18.066;2023-09-12T04:59:10;97436.56;;;21.52;100.00
46768;BME280;69007;48.978;18.066;2023-09-12T05:01:35;97435.69;;;21.85;99.93
46768;BME280;69007;48.978;18.066;2023-09-12T05:04:01;97427.88;;;21.99;98.59
46768;BME280;69007;48.978;18.066;2023-09-12T05:06:28;97450.75;;;22.45;96.07
46768;BME280;69007;48.978;18.066;2023-09-12T05:08:53;97445.47;;;22.93;93.07
46768;BME280;69007;48.978;18.066;2023-09-12T05:11:18;97445.34;;;23.30;90.71
46768;BME280;69007;48.978;18.066;2023-09-12T05:13:44;97452.44;;;23.44;89.68
46768;BME280;69007;48.978;18.066;2023-09-12T05:16:09;97437.78;;;23.43;89.37
46768;BME280;69007;48.978;18.066;2023-09-12T05:18:34;97447.28;;;23.58;88.66
46768;BME280;69007;48.978;18.066;2023-09-12T05:21:00;97446.75;;;23.68;88.19
46768;BME280;69007;48.978;18.066;2023-09-12T05:23:25;97440.78;;;23.66;86.83
46768;BME280;69007;48.978;18.066;2023-09-12T05:25:50;97443.22;;;23.84;86.20
46768;BME280;69007;48.978;18.066;2023-09-12T05:28:16;97452.38;;;24.16;84.74
46768;BME280;69007;48.978;18.066;2023-09-12T05:30:44;97437.56;;;24.28;82.53
46768;BME280;69007;48.978;18.066;2023-09-12T05:33:09;97441.03;;;24.41;82.28
46768;BME280;69007;48.978;18.066;2023-09-12T05:35:35;97448.56;;;24.56;81.58
46768;BME280;69007;48.978;18.066;2023-09-12T05:38:02;97457.66;;;25.08;78.00
46768;BME280;69007;48.978;18.066;2023-09-12T05:40:27;97457.66;;;25.67;74.15
46768;BME280;69007;48.978;18.066;2023-09-12T05:42:53;97444.91;;;26.89;68.89
46768;BME280;69007;48.978;18.066;2023-09-12T05:45:18;97448.81;;;28.23;63.91
46768;BME280;69007;48.978;18.066;2023-09-12T05:47:44;97454.31;;;29.27;60.47
46768;BME280;69007;48.978;18.066;2023-09-12T05:50:09;97455.69;;;29.94;57.96
46768;BME280;69007;48.978;18.066;2023-09-12T05:52:34;97471.69;;;31.16;54.62
46768;BME280;69007;48.978;18.066;2023-09-12T05:55:00;97461.56;;;32.14;51.85
46768;BME280;69007;48.978;18.066;2023-09-12T05:57:25;97476.06;;;33.03;49.03
46768;BME280;69007;48.978;18.066;2023-09-12T05:59:51;97463.66;;;33.66;47.80
46768;BME280;69007;48.978;18.066;2023-09-12T06:02:16;97482.38;;;34.62;45.40
46768;BME280;69007;48.978;18.066;2023-09-12T06:04:43;97483.38;;;35.39;43.56
46768;BME280;69007;48.978;18.066;2023-09-12T06:07:08;97473.59;;;36.16;42.47
46768;BME280;69007;48.978;18.066;2023-09-12T06:09:34;97469.78;;;36.43;41.85
46768;BME280;69007;48.978;18.066;2023-09-12T06:11:59;97465.94;;;36.83;40.42
46768;BME280;69007;48.978;18.066;2023-09-12T06:14:24;97474.63;;;37.21;40.19
46768;BME280;69007;48.978;18.066;2023-09-12T06:16:50;97473.41;;;37.22;40.15
46768;BME280;69007;48.978;18.066;2023-09-12T06:19:15;97460.44;;;37.21;39.28
46768;BME280;69007;48.978;18.066;2023-09-12T06:21:41;97469.19;;;37.27;39.17
46768;BME280;69007;48.978;18.066;2023-09-12T06:24:19;97474.91;;;36.81;36.79
46768;BME280;69007;48.978;18.066;2023-09-12T06:26:46;97482.00;;;37.02;39.56
46768;BME280;69007;48.978;18.066;2023-09-12T06:29:13;97470.72;;;37.44;38.03
46768;BME280;69007;48.978;18.066;2023-09-12T06:31:39;97477.06;;;38.04;37.42
46768;BME280;69007;48.978;18.066;2023-09-12T06:34:06;97472.50;;;39.05;36.15
46768;BME280;69007;48.978;18.066;2023-09-12T06:36:32;97474.53;;;39.62;34.74
46768;BME280;69007;48.978;18.066;2023-09-12T06:38:58;97456.88;;;39.76;34.42
46768;BME280;69007;48.978;18.066;2023-09-12T06:41:24;97464.22;;;40.27;33.33
46768;BME280;69007;48.978;18.066;2023-09-12T06:43:49;97469.63;;;40.84;33.14
46768;BME280;69007;48.978;18.066;2023-09-12T06:46:15;97465.19;;;41.20;32.17
46768;BME280;69007;48.978;18.066;2023-09-12T06:48:43;97480.56;;;41.51;31.09
46768;BME280;69007;48.978;18.066;2023-09-12T06:51:09;97471.69;;;42.10;31.00
46768;BME280;69007;48.978;18.066;2023-09-12T06:53:35;97467.47;;;42.63;29.97
46768;BME280;69007;48.978;18.066;2023-09-12T06:56:03;97472.25;;;42.81;29.61
46768;BME280;69007;48.978;18.066;2023-09-12T06:58:28;97478.84;;;42.96;29.34
46768;BME280;69007;48.978;18.066;2023-09-12T07:00:53;97476.34;;;42.89;29.60
46768;BME280;69007;48.978;18.066;2023-09-12T07:03:19;97463.97;;;42.34;29.56
46768;BME280;69007;48.978;18.066;2023-09-12T07:05:44;97479.13;;;41.55;29.91
46768;BME280;69007;48.978;18.066;2023-09-12T07:08:10;97479.13;;;41.55;30.18
46768;BME280;69007;48.978;18.066;2023-09-12T07:10:35;97473.81;;;41.91;30.16
46768;BME280;69007;48.978;18.066;2023-09-12T07:13:01;97471.44;;;42.65;29.27
46768;BME280;69007;48.978;18.066;2023-09-12T07:15:27;97484.00;;;42.25;29.40
46768;BME280;69007;48.978;18.066;2023-09-12T07:17:52;97473.88;;;40.80;30.58
46768;BME280;69007;48.978;18.066;2023-09-12T07:20:18;97463.44;;;38.63;33.33
46768;BME280;69007;48.978;18.066;2023-09-12T07:22:45;97483.13;;;36.76;35.67
46768;BME280;69007;48.978;18.066;2023-09-12T07:25:13;97471.03;;;35.09;38.07
46768;BME280;69007;48.978;18.066;2023-09-12T07:27:38;97476.75;;;33.49;41.28
46768;BME280;69007;48.978;18.066;2023-09-12T07:30:07;97477.56;;;32.25;43.93
46768;BME280;69007;48.978;18.066;2023-09-12T07:32:33;97479.34;;;31.09;46.83
46768;BME280;69007;48.978;18.066;2023-09-12T07:34:58;97466.53;;;30.18;49.33
46768;BME280;69007;48.978;18.066;2023-09-12T07:37:23;97466.00;;;29.47;51.43
46768;BME280;69007;48.978;18.066;2023-09-12T07:39:49;97437.34;;;29.02;52.29
46768;BME280;69007;48.978;18.066;2023-09-12T07:42:14;97465.34;;;29.02;53.62
46768;BME280;69007;48.978;18.066;2023-09-12T07:44:39;97457.00;;;28.46;55.41
46768;BME280;69007;48.978;18.066;2023-09-12T07:47:05;97421.53;;;28.09;55.55
46768;BME280;69007;48.978;18.066;2023-09-12T07:49:30;97457.78;;;27.95;57.45
46768;BME280;69007;48.978;18.066;2023-09-12T07:51:56;97482.28;;;27.75;58.82
46768;BME280;69007;48.978;18.066;2023-09-12T07:54:22;97478.06;;;27.54;59.92
46768;BME280;69007;48.978;18.066;2023-09-12T07:56:48;97457.56;;;27.39;60.35
46768;BME280;69007;48.978;18.066;2023-09-12T07:59:13;97450.69;;;27.33;61.10
46768;BME280;69007;48.978;18.066;2023-09-12T08:01:40;97462.13;;;27.25;62.24
46768;BME280;69007;48.978;18.066;2023-09-12T08:04:05;97468.84;;;27.20;62.69
46768;BME280;69007;48.978;18.066;2023-09-12T08:06:30;97453.88;;;27.01;63.35
46768;BME280;69007;48.978;18.066;2023-09-12T08:08:56;97470.81;;;27.16;63.35
46768;BME280;69007;48.978;18.066;2023-09-12T08:11:22;97473.44;;;27.35;63.22
46768;BME280;69007;48.978;18.066;2023-09-12T08:13:48;97437.81;;;27.29;63.51
46768;BME280;69007;48.978;18.066;2023-09-12T08:16:14;97456.59;;;27.28;64.44
46768;BME280;69007;48.978;18.066;2023-09-12T08:18:40;97464.34;;;27.42;64.34
46768;BME280;69007;48.978;18.066;2023-09-12T08:21:05;97444.19;;;27.26;64.05
46768;BME280;69007;48.978;18.066;2023-09-12T08:23:30;97465.72;;;27.55;65.18
46768;BME280;69007;48.978;18.066;2023-09-12T08:25:56;97469.34;;;27.60;65.25
46768;BME280;69007;48.978;18.066;2023-09-12T08:28:21;97456.59;;;27.28;65.46
46768;BME280;69007;48.978;18.066;2023-09-12T08:30:47;97456.88;;;27.19;67.32
46768;BME280;69007;48.978;18.066;2023-09-12T08:33:12;97471.00;;;27.30;65.86
46768;BME280;69007;48.978;18.066;2023-09-12T08:35:37;97456.50;;;27.21;66.67
46768;BME280;69007;48.978;18.066;2023-09-12T08:38:03;97471.03;;;27.34;66.23
46768;BME280;69007;48.978;18.066;2023-09-12T08:40:28;97457.94;;;27.08;66.26
46768;BME280;69007;48.978;18.066;2023-09-12T08:42:57;97474.47;;;27.24;67.38
46768;BME280;69007;48.978;18.066;2023-09-12T08:45:23;97474.94;;;27.26;66.46
46768;BME280;69007;48.978;18.066;2023-09-12T08:47:53;97450.53;;;27.23;66.33
46768;BME280;69007;48.978;18.066;2023-09-12T08:50:20;97474.31;;;27.39;66.84
46768;BME280;69007;48.978;18.066;2023-09-12T08:52:48;97464.16;;;27.28;65.89
46768;BME280;69007;48.978;18.066;2023-09-12T08:55:13;97471.94;;;27.42;64.90
46768;BME280;69007;48.978;18.066;2023-09-12T08:57:41;97461.47;;;27.35;62.26
46768;BME280;69007;48.978;18.066;2023-09-12T09:00:08;97452.16;;;27.57;59.58
46768;BME280;69007;48.978;18.066;2023-09-12T09:02:38;97448.50;;;27.91;61.23
46768;BME280;69007;48.978;18.066;2023-09-12T09:05:04;97442.13;;;27.90;61.53
46768;BME280;69007;48.978;18.066;2023-09-12T09:07:41;97464.56;;;27.98;65.26
46768;BME280;69007;48.978;18.066;2023-09-12T09:10:09;97460.94;;;27.93;63.30
46768;BME280;69007;48.978;18.066;2023-09-12T09:12:35;97450.09;;;27.88;63.62
46768;BME280;69007;48.978;18.066;2023-09-12T09:15:37;97459.59;;;27.80;63.79
46768;BME280;69007;48.978;18.066;2023-09-12T09:18:06;97461.75;;;27.94;63.72
46768;BME280;69007;48.978;18.066;2023-09-12T09:20:33;97440.13;;;27.91;62.99
46768;BME280;69007;48.978;18.066;2023-09-12T09:23:09;97444.78;;;27.80;62.60
46768;BME280;69007;48.978;18.066;2023-09-12T09:25:42;97464.06;;;27.88;61.81
46768;BME280;69007;48.978;18.066;2023-09-12T09:28:18;97459.56;;;28.18;61.40
46768;BME280;69007;48.978;18.066;2023-09-12T09:30:46;97450.78;;;28.23;60.77
46768;BME280;69007;48.978;18.066;2023-09-12T09:33:12;97446.38;;;28.18;59.91
46768;BME280;69007;48.978;18.066;2023-09-12T09:35:40;97442.84;;;28.25;61.52
46768;BME280;69007;48.978;18.066;2023-09-12T09:38:07;97457.38;;;28.41;60.42
46768;BME280;69007;48.978;18.066;2023-09-12T09:40:34;97456.22;;;28.49;59.95
46768;BME280;69007;48.978;18.066;2023-09-12T09:43:00;97453.91;;;28.59;59.25
46768;BME280;69007;48.978;18.066;2023-09-12T09:45:27;97460.31;;;28.59;59.13
46768;BME280;69007;48.978;18.066;2023-09-12T09:47:57;97445.50;;;28.59;57.71
46768;BME280;69007;48.978;18.066;2023-09-12T09:50:23;97447.94;;;28.67;58.09
46768;BME280;69007;48.978;18.066;2023-09-12T09:52:54;97441.84;;;28.55;56.64
46768;BME280;69007;48.978;18.066;2023-09-12T09:55:20;97450.63;;;28.49;57.46
46768;BME280;69007;48.978;18.066;2023-09-12T09:57:45;97426.91;;;28.36;59.46
46768;BME280;69007;48.978;18.066;2023-09-12T10:00:11;97420.88;;;28.27;58.36
46768;BME280;69007;48.978;18.066;2023-09-12T10:02:40;97440.19;;;28.46;57.73
46768;BME280;69007;48.978;18.066;2023-09-12T10:05:08;97418.94;;;28.35;57.80
46768;BME280;69007;48.978;18.066;2023-09-12T10:07:37;97423.25;;;28.25;57.62
46768;BME280;69007;48.978;18.066;2023-09-12T10:10:03;97444.78;;;28.21;59.17
46768;BME280;69007;48.978;18.066;2023-09-12T10:12:31;97424.75;;;28.11;60.65
46768;BME280;69007;48.978;18.066;2023-09-12T10:15:00;97415.75;;;27.91;59.28
46768;BME280;69007;48.978;18.066;2023-09-12T10:17:31;97434.28;;;28.03;59.91
46768;BME280;69007;48.978;18.066;2023-09-12T10:20:03;97430.28;;;28.04;59.24
46768;BME280;69007;48.978;18.066;2023-09-12T10:22:40;97407.06;;;28.00;59.70
46768;BME280;69007;48.978;18.066;2023-09-12T10:25:08;97431.19;;;28.19;60.99
46768;BME280;69007;48.978;18.066;2023-09-12T10:27:33;97431.97;;;28.16;58.71
46768;BME280;69007;48.978;18.066;2023-09-12T10:30:00;97425.97;;;28.18;56.78
46768;BME280;69007;48.978;18.066;2023-09-12T10:32:28;97420.78;;;28.16;55.61
46768;BME280;69007;48.978;18.066;2023-09-12T10:34:58;97422.81;;;28.19;56.64
46768;BME280;69007;48.978;18.066;2023-09-12T10:37:25;97417.50;;;28.03;56.47
46768;BME280;69007;48.978;18.066;2023-09-12T10:39:55;97401.84;;;27.95;58.20
46768;BME280;69007;48.978;18.066;2023-09-12T10:42:21;97401.13;;;28.05;58.47
46768;BME280;69007;48.978;18.066;2023-09-12T10:44:50;97401.50;;;28.00;59.48
46768;BME280;69007;48.978;18.066;2023-09-12T10:47:17;97409.94;;;28.11;56.98
46768;BME280;69007;48.978;18.066;2023-09-12T10:49:43;97406.38;;;28.14;57.04
46768;BME280;69007;48.978;18.066;2023-09-12T10:52:09;97403.97;;;28.12;55.82
46768;BME280;69007;48.978;18.066;2023-09-12T10:54:40;97412.44;;;28.20;55.59
46768;BME280;69007;48.978;18.066;2023-09-12T10:57:10;97415.72;;;28.36;57.51
46768;BME280;69007;48.978;18.066;2023-09-12T11:00:09;97412.06;;;28.25;56.83
46768;BME280;69007;48.978;18.066;2023-09-12T11:02:42;97413.63;;;28.22;55.84
46768;BME280;69007;48.978;18.066;2023-09-12T11:07:58;97407.31;;;28.36;56.62
46768;BME280;69007;48.978;18.066;2023-09-12T11:10:25;97413.78;;;28.44;56.46
46768;BME280;69007;48.978;18.066;2023-09-12T11:12:52;97398.59;;;28.41;57.04
46768;BME280;69007;48.978;18.066;2023-09-12T11:15:20;97389.34;;;28.37;58.85
46768;BME280;69007;48.978;18.066;2023-09-12T11:17:48;97400.25;;;28.49;55.66
46768;BME280;69007;48.978;18.066;2023-09-12T11:20:15;97413.13;;;28.58;56.66
46768;BME280;69007;48.978;18.066;2023-09-12T11:22:45;97383.88;;;28.52;55.25
46768;BME280;69007;48.978;18.066;2023-09-12T11:25:25;97394.72;;;28.60;56.49
46768;BME280;69007;48.978;18.066;2023-09-12T11:30:26;97392.31;;;28.59;54.06
46768;BME280;69007;48.978;18.066;2023-09-12T11:32:56;97386.31;;;28.57;56.57
46768;BME280;69007;48.978;18.066;2023-09-12T11:35:23;97389.47;;;28.55;56.91
46768;BME280;69007;48.978;18.066;2023-09-12T11:37:49;97369.78;;;28.37;56.63
46768;BME280;69007;48.978;18.066;2023-09-12T11:40:41;97377.78;;;28.39;55.13
46768;BME280;69007;48.978;18.066;2023-09-12T11:43:08;97378.19;;;28.44;56.04
46768;BME280;69007;48.978;18.066;2023-09-12T11:45:43;97350.63;;;28.43;55.29
46768;BME280;69007;48.978;18.066;2023-09-12T11:48:09;97382.63;;;28.45;55.60
46768;BME280;69007;48.978;18.066;2023-09-12T11:50:35;97378.63;;;28.43;55.22
46768;BME280;69007;48.978;18.066;2023-09-12T11:53:11;97384.16;;;28.36;53.99
46768;BME280;69007;48.978;18.066;2023-09-12T11:55:47;97365.69;;;28.24;54.84
46768;BME280;69007;48.978;18.066;2023-09-12T11:58:15;97377.34;;;28.33;55.00
46768;BME280;69007;48.978;18.066;2023-09-12T12:00:53;97384.94;;;28.36;54.41
46768;BME280;69007;48.978;18.066;2023-09-12T12:03:20;97364.06;;;28.23;54.48
46768;BME280;69007;48.978;18.066;2023-09-12T12:05:47;97368.56;;;28.35;54.49
46768;BME280;69007;48.978;18.066;2023-09-12T12:08:13;97371.66;;;28.19;53.21
46768;BME280;69007;48.978;18.066;2023-09-12T12:10:39;97361.72;;;28.25;54.32
46768;BME280;69007;48.978;18.066;2023-09-12T12:13:09;97351.31;;;28.25;54.02
46768;BME280;69007;48.978;18.066;2023-09-12T12:15:36;97371.25;;;28.17;53.01
46768;BME280;69007;48.978;18.066;2023-09-12T12:18:01;97364.81;;;28.12;53.37
46768;BME280;69007;48.978;18.066;2023-09-12T12:20:27;97363.28;;;28.22;53.02
46768;BME280;69007;48.978;18.066;2023-09-12T12:22:54;97366.16;;;28.33;54.71
46768;BME280;69007;48.978;18.066;2023-09-12T12:25:21;97358.59;;;28.44;52.82
46768;BME280;69007;48.978;18.066;2023-09-12T12:27:47;97349.03;;;28.42;52.71
46768;BME280;69007;48.978;18.066;2023-09-12T12:30:14;97359.06;;;28.50;52.74
46768;BME280;69007;48.978;18.066;2023-09-12T12:32:44;97346.63;;;28.47;55.14
46768;BME280;69007;48.978;18.066;2023-09-12T12:35:22;97356.34;;;28.61;53.32
46768;BME280;69007;48.978;18.066;2023-09-12T12:37:48;97365.97;;;28.63;55.21
46768;BME280;69007;48.978;18.066;2023-09-12T12:40:15;97368.75;;;28.63;55.74
46768;BME280;69007;48.978;18.066;2023-09-12T12:42:41;97352.75;;;28.60;55.24
46768;BME280;69007;48.978;18.066;2023-09-12T12:45:14;97345.13;;;28.57;54.26
46768;BME280;69007;48.978;18.066;2023-09-12T12:47:41;97341.09;;;28.55;57.14
46768;BME280;69007;48.978;18.066;2023-09-12T12:50:14;97352.38;;;28.69;52.52
46768;BME280;69007;48.978;18.066;2023-09-12T12:52:41;97351.59;;;28.72;53.29
46768;BME280;69007;48.978;18.066;2023-09-12T12:55:10;97313.09;;;28.55;54.00